createdAt,value
2022-10-04T00:02:04.935Z,3.25
2022-10-04T00:04:42.420Z,3.40
2022-10-04T00:07:12.296Z,4.03
2022-10-04T00:09:46.002Z,3.45
2022-10-04T00:12:22.884Z,3.92
2022-10-04T00:14:51.068Z,3.05
2022-10-04T00:17:23.195Z,3.85
2022-10-04T00:19:50.602Z,3.38
2022-10-04T00:22:19.196Z,2.80
2022-10-04T00:25:13.861Z,3.40
2022-10-04T00:27:41.250Z,2.55
2022-10-04T00:30:25.849Z,2.85
2022-10-04T00:33:03.509Z,3.55
2022-10-04T00:35:30.551Z,3.15
2022-10-04T00:38:24.999Z,3.13
2022-10-04T00:43:42.263Z,2.60
2022-10-04T00:46:14.787Z,2.47
2022-10-04T00:48:53.282Z,2.80
2022-10-04T00:51:32.997Z,2.38
2022-10-04T00:54:17.537Z,2.33
2022-10-04T00:57:10.587Z,2.33
2022-10-04T01:00:08.503Z,2.28
2022-10-04T01:02:53.547Z,2.50
2022-10-04T01:05:26.665Z,2.28
2022-10-04T01:07:57.689Z,2.08
2022-10-04T01:10:29.375Z,2.10
2022-10-04T01:13:16.570Z,1.90
2022-10-04T01:16:04.099Z,1.20
2022-10-04T01:18:32.825Z,1.90
2022-10-04T01:21:19.126Z,1.85
2022-10-04T01:23:53.484Z,1.75
2022-10-04T01:26:38.388Z,1.65
2022-10-04T01:29:24.390Z,2.00
2022-10-04T01:31:53.073Z,1.77
2022-10-04T01:34:21.708Z,1.52
2022-10-04T01:36:49.263Z,1.42
2022-10-04T01:39:17.223Z,1.83
2022-10-04T01:41:56.994Z,1.85
2022-10-04T01:44:59.134Z,2.25
2022-10-04T01:47:43.541Z,1.60
2022-10-04T01:50:15.968Z,1.30
2022-10-04T01:52:44.823Z,1.50
2022-10-04T01:55:25.315Z,1.70
2022-10-04T01:58:17.649Z,1.50
2022-10-04T02:00:55.507Z,1.92
2022-10-04T02:03:37.802Z,2.60
2022-10-04T02:06:06.115Z,2.20
2022-10-04T02:08:34.835Z,2.45
2022-10-04T02:11:05.124Z,1.95
2022-10-04T02:13:39.362Z,2.20
2022-10-04T02:16:10.482Z,1.65
2022-10-04T02:18:38.268Z,2.25
2022-10-04T02:21:08.698Z,1.85
2022-10-04T02:23:36.468Z,1.85
2022-10-04T02:26:07.518Z,1.80
2022-10-04T02:28:35.201Z,1.88
2022-10-04T02:31:20.526Z,2.00
2022-10-04T02:33:50.210Z,1.90
2022-10-04T02:36:17.300Z,1.73
2022-10-04T02:38:54.436Z,1.55
2022-10-04T02:41:43.228Z,1.23
2022-10-04T02:44:36.852Z,1.90
2022-10-04T02:47:14.317Z,1.50
2022-10-04T02:49:50.712Z,1.35
2022-10-04T02:52:31.683Z,1.70
2022-10-04T02:55:03.096Z,1.30
2022-10-04T02:57:32.848Z,1.73
2022-10-04T03:00:24.727Z,1.40
2022-10-04T03:03:23.117Z,1.63
2022-10-04T03:06:13.277Z,1.90
2022-10-04T03:08:49.010Z,1.58
2022-10-04T03:11:19.086Z,1.85
2022-10-04T03:13:47.617Z,1.67
2022-10-04T03:16:14.678Z,1.90
2022-10-04T03:18:42.065Z,1.60
2022-10-04T03:21:09.970Z,2.67
2022-10-04T03:23:40.098Z,1.35
2022-10-04T03:26:25.268Z,1.55
2022-10-04T03:28:52.199Z,2.30
2022-10-04T03:31:20.092Z,2.13
2022-10-04T03:33:47.423Z,2.00
2022-10-04T03:36:16.951Z,2.03
2022-10-04T03:38:44.773Z,1.75
2022-10-04T03:41:11.830Z,2.05
2022-10-04T03:43:44.789Z,1.67
2022-10-04T03:46:12.724Z,2.10
2022-10-04T03:48:50.421Z,2.10
2022-10-04T03:51:21.462Z,1.50
2022-10-04T03:53:50.227Z,1.63
2022-10-04T03:56:35.983Z,1.50
2022-10-04T03:59:06.544Z,1.38
2022-10-04T04:01:40.725Z,1.73
2022-10-04T04:04:16.886Z,1.58
2022-10-04T04:07:22.658Z,1.45
2022-10-04T04:09:51.014Z,1.38
2022-10-04T04:12:21.057Z,1.48
2022-10-04T04:14:51.809Z,1.25
2022-10-04T04:17:18.706Z,1.42
2022-10-04T04:19:45.791Z,1.50
2022-10-04T04:22:16.728Z,1.40
2022-10-04T04:24:43.900Z,1.67
2022-10-04T04:27:11.035Z,1.60
2022-10-04T04:29:52.602Z,1.13
2022-10-04T04:32:28.670Z,1.70
2022-10-04T04:35:00.852Z,1.25
2022-10-04T04:37:27.902Z,1.40
2022-10-04T04:39:55.653Z,1.73
2022-10-04T04:42:32.298Z,1.25
2022-10-04T04:45:05.198Z,1.42
2022-10-04T04:47:36.270Z,1.27
2022-10-04T04:50:17.387Z,1.60
2022-10-04T04:52:48.266Z,1.60
2022-10-04T04:55:26.430Z,1.52
2022-10-04T04:57:56.143Z,1.25
2022-10-04T05:00:27.292Z,1.65
2022-10-04T05:02:58.989Z,1.50
2022-10-04T05:05:30.819Z,2.40
2022-10-04T05:08:29.949Z,1.40
2022-10-04T05:11:08.928Z,1.23
2022-10-04T05:13:58.509Z,1.17
2022-10-04T05:16:44.548Z,1.58
2022-10-04T05:19:17.900Z,1.20
2022-10-04T05:21:49.108Z,1.50
2022-10-04T05:24:21.951Z,1.38
2022-10-04T05:26:54.083Z,1.10
2022-10-04T05:29:24.331Z,1.67
2022-10-04T05:32:03.727Z,1.17
2022-10-04T05:34:35.470Z,0.90
2022-10-04T05:37:36.345Z,1.02
2022-10-04T05:40:18.533Z,0.77
2022-10-04T05:42:46.667Z,0.85
2022-10-04T05:45:15.067Z,0.82
2022-10-04T05:47:42.309Z,0.50
2022-10-04T05:50:43.294Z,0.70
2022-10-04T05:53:35.861Z,0.80
2022-10-04T05:56:14.855Z,0.80
2022-10-04T05:59:07.452Z,0.70
2022-10-04T06:01:48.515Z,1.13
2022-10-04T06:04:44.618Z,0.93
2022-10-04T06:07:29.483Z,0.90
2022-10-04T06:10:34.268Z,0.80
2022-10-04T06:13:31.088Z,0.80
2022-10-04T06:16:13.011Z,0.60
2022-10-04T06:19:09.295Z,0.77
2022-10-04T06:21:57.527Z,0.73
2022-10-04T06:24:27.866Z,0.60
2022-10-04T06:26:59.641Z,0.90
2022-10-04T06:29:32.662Z,1.00
2022-10-04T06:32:33.173Z,0.88
2022-10-04T06:35:31.475Z,0.93
2022-10-04T06:38:17.293Z,0.63
2022-10-04T06:40:54.689Z,0.63
2022-10-04T06:43:42.777Z,0.90
2022-10-04T06:46:31.896Z,0.90
2022-10-04T06:49:26.996Z,0.60
2022-10-04T06:52:30.499Z,0.88
2022-10-04T06:55:02.358Z,0.60
2022-10-04T06:57:54.149Z,0.70
2022-10-04T07:00:26.492Z,0.63
2022-10-04T07:03:04.835Z,0.80
2022-10-04T07:05:53.360Z,0.70
2022-10-04T07:08:34.189Z,0.40
2022-10-04T07:11:11.541Z,0.98
2022-10-04T07:13:43.691Z,0.50
2022-10-04T07:16:25.945Z,0.68
2022-10-04T07:19:01.902Z,0.77
2022-10-04T07:21:40.452Z,0.70
2022-10-04T07:24:09.393Z,0.57
2022-10-04T07:27:00.191Z,0.60
2022-10-04T07:29:29.949Z,0.65
2022-10-04T07:32:06.110Z,0.70
2022-10-04T07:34:40.531Z,0.77
2022-10-04T07:37:12.900Z,0.60
2022-10-04T07:40:10.311Z,0.65
2022-10-04T07:42:52.001Z,0.82
2022-10-04T07:45:29.874Z,0.57
2022-10-04T07:48:21.457Z,0.90
2022-10-04T07:51:05.705Z,0.63
2022-10-04T07:54:10.584Z,1.23
2022-10-04T07:56:57.496Z,0.93
2022-10-04T07:59:48.693Z,0.85
2022-10-04T08:02:36.814Z,1.02
2022-10-04T08:05:13.654Z,0.82
2022-10-04T08:08:05.331Z,0.90
2022-10-04T08:10:40.572Z,1.23
2022-10-04T08:13:25.575Z,0.95
2022-10-04T08:15:59.583Z,0.63
2022-10-04T08:18:32.668Z,0.90
2022-10-04T08:21:07.331Z,0.90
2022-10-04T08:23:59.724Z,0.77
2022-10-04T08:26:32.816Z,0.88
2022-10-04T08:29:42.838Z,0.60
2022-10-04T08:32:23.727Z,0.70
2022-10-04T08:35:31.532Z,0.60
2022-10-04T08:38:10.550Z,0.40
2022-10-04T08:41:11.499Z,0.60
2022-10-04T08:44:15.948Z,0.50
2022-10-04T08:47:03.355Z,0.63
2022-10-04T08:49:55.390Z,0.60
2022-10-04T08:52:46.602Z,0.55
2022-10-04T08:55:51.915Z,0.88
2022-10-04T08:59:17.233Z,1.33
2022-10-04T09:01:57.741Z,0.57
2022-10-04T09:04:59.270Z,0.40
2022-10-04T09:08:56.840Z,0.52
2022-10-04T09:21:59.320Z,0.50
2022-10-04T09:24:44.714Z,0.40
2022-10-04T09:27:59.849Z,1.02
2022-10-04T09:30:56.811Z,0.38
2022-10-04T09:33:29.520Z,0.55
2022-10-04T09:36:20.479Z,0.32
2022-10-04T09:39:44.430Z,0.57
2022-10-04T09:42:34.676Z,0.50
2022-10-04T09:45:27.348Z,0.50
2022-10-04T09:57:01.571Z,0.50
2022-10-04T09:59:32.726Z,0.30
2022-10-04T10:02:08.591Z,0.30
2022-10-04T10:05:00.670Z,1.00
2022-10-04T10:07:43.299Z,0.43
2022-10-04T10:10:53.158Z,0.38
2022-10-04T10:13:55.855Z,0.55
2022-10-04T10:16:57.995Z,0.40
2022-10-04T10:20:34.876Z,0.30
2022-10-04T14:14:34.694Z,0.35
2022-10-04T14:37:31.038Z,0.40
2022-10-04T14:40:13.687Z,0.28
2022-10-04T14:43:34.421Z,0.50
2022-10-04T14:52:21.596Z,0.32
2022-10-04T15:02:23.375Z,0.30
2022-10-04T15:14:45.756Z,0.40
2022-10-04T15:27:52.872Z,0.30
2022-10-04T15:30:54.023Z,0.40
2022-10-04T17:01:30.100Z,0.80
2022-10-04T17:04:31.320Z,0.57
2022-10-04T17:18:04.739Z,0.38
2022-10-04T17:21:14.781Z,0.47
2022-10-04T17:30:26.930Z,0.55
2022-10-04T17:33:17.209Z,0.43
2022-10-04T17:36:49.667Z,0.43
2022-10-04T17:39:48.246Z,0.60
2022-10-04T17:43:07.453Z,0.52
2022-10-04T17:46:32.789Z,0.38
2022-10-04T17:49:39.378Z,0.70
2022-10-04T17:52:55.754Z,0.40
2022-10-04T18:17:09.807Z,0.60
2022-10-04T18:20:42.988Z,0.50
2022-10-04T19:16:35.945Z,0.60
2022-10-04T19:20:02.028Z,1.05
2022-10-04T19:26:37.078Z,0.60
2022-10-04T19:29:37.138Z,0.35
2022-10-04T19:32:14.709Z,0.57
2022-10-04T19:35:13.185Z,0.70
2022-10-04T19:38:07.754Z,0.30
2022-10-04T19:40:57.115Z,0.40
2022-10-04T19:47:09.559Z,0.50
2022-10-04T19:49:51.397Z,1.05
2022-10-04T19:52:39.164Z,0.50
2022-10-04T19:55:24.276Z,0.60
2022-10-04T20:06:05.791Z,0.70
2022-10-04T20:08:49.623Z,0.90
2022-10-04T20:11:26.377Z,0.55
2022-10-04T20:14:07.380Z,0.40
2022-10-04T20:16:53.531Z,0.73
2022-10-04T20:19:26.279Z,0.70
2022-10-04T20:21:58.931Z,0.55
2022-10-04T20:24:38.270Z,0.85
2022-10-04T20:27:48.548Z,0.63
2022-10-04T20:30:16.876Z,0.65
2022-10-04T20:32:49.233Z,0.85
2022-10-04T20:35:56.557Z,0.47
2022-10-04T20:39:13.721Z,0.40
2022-10-04T20:42:05.176Z,0.47
2022-10-04T20:44:57.026Z,0.50
2022-10-04T20:47:42.690Z,0.50
2022-10-04T20:50:58.848Z,0.75
2022-10-04T21:44:20.125Z,0.73
2022-10-04T21:46:55.094Z,0.70
2022-10-04T21:49:32.803Z,0.85
2022-10-04T21:52:17.139Z,0.63
2022-10-04T21:54:45.340Z,0.75
2022-10-04T21:57:15.432Z,0.60
2022-10-04T21:59:47.596Z,0.50
2022-10-04T22:02:34.870Z,0.65
2022-10-04T22:05:02.191Z,0.68
2022-10-04T22:07:34.694Z,0.45
2022-10-04T22:10:06.079Z,0.63
2022-10-04T22:12:33.149Z,0.60
2022-10-04T22:15:09.751Z,0.60
2022-10-04T22:17:41.176Z,0.90
2022-10-04T22:20:16.067Z,0.43
2022-10-04T22:22:57.410Z,0.50
2022-10-04T22:25:32.014Z,0.40
2022-10-04T22:28:00.817Z,0.70
2022-10-04T22:30:31.575Z,0.30
2022-10-04T22:33:17.529Z,0.57
2022-10-04T22:35:46.166Z,0.30
2022-10-04T22:38:13.344Z,0.60
2022-10-04T22:40:40.337Z,0.60
2022-10-04T22:43:18.013Z,0.50
2022-10-04T22:45:48.828Z,0.57
2022-10-04T22:48:21.599Z,0.93
2022-10-04T22:50:52.545Z,0.77
2022-10-04T22:53:23.064Z,0.60
2022-10-04T22:55:50.884Z,1.30
2022-10-04T22:58:21.425Z,0.50
2022-10-04T23:00:48.489Z,0.50
2022-10-04T23:03:32.093Z,0.73
2022-10-04T23:06:04.528Z,0.40
2022-10-04T23:08:39.095Z,0.63
2022-10-04T23:11:06.285Z,0.70
2022-10-04T23:13:33.491Z,0.77
2022-10-04T23:16:02.305Z,0.60
2022-10-04T23:18:30.268Z,0.68
2022-10-04T23:21:01.487Z,0.85
2022-10-04T23:23:29.160Z,0.95
2022-10-04T23:25:56.279Z,0.50
2022-10-04T23:28:23.343Z,0.60
2022-10-04T23:31:03.642Z,0.55
2022-10-04T23:33:30.609Z,0.50
2022-10-04T23:36:05.027Z,0.40
2022-10-04T23:38:39.667Z,0.50
2022-10-04T23:41:11.328Z,0.88
2022-10-04T23:43:38.721Z,0.45
2022-10-04T23:46:12.825Z,0.50
2022-10-04T23:48:40.051Z,1.00
2022-10-04T23:51:07.137Z,0.55
2022-10-04T23:53:34.172Z,0.68
2022-10-04T23:56:04.558Z,0.70
2022-10-04T23:58:36.876Z,0.73
